sensor_id;sensor_type;location;lat;lon;timestamp;P1;durP1;ratioP1;P2;durP2;ratioP2
54235;SDS011;40151;43.606;1.472;2022-07-06T00:02:43;4.82;;;1.00;;
54235;SDS011;40151;43.606;1.472;2022-07-06T00:05:31;2.28;;;0.80;;
54235;SDS011;40151;43.606;1.472;2022-07-06T00:08:15;2.55;;;1.00;;
54235;SDS011;40151;43.606;1.472;2022-07-06T00:11:09;2.25;;;1.00;;
54235;SDS011;40151;43.606;1.472;2022-07-06T00:14:08;3.45;;;0.90;;
54235;SDS011;40151;43.606;1.472;2022-07-06T00:16:55;2.80;;;1.10;;
54235;SDS011;40151;43.606;1.472;2022-07-06T00:19:35;3.10;;;0.90;;
54235;SDS011;40151;43.606;1.472;2022-07-06T00:22:21;3.00;;;1.08;;
54235;SDS011;40151;43.606;1.472;2022-07-06T00:25:07;2.88;;;0.90;;
54235;SDS011;40151;43.606;1.472;2022-07-06T00:27:42;2.25;;;0.80;;
54235;SDS011;40151;43.606;1.472;2022-07-06T00:30:24;3.47;;;1.10;;
54235;SDS011;40151;43.606;1.472;2022-07-06T00:32:59;2.55;;;0.95;;
54235;SDS011;40151;43.606;1.472;2022-07-06T00:35:40;2.97;;;0.80;;
54235;SDS011;40151;43.606;1.472;2022-07-06T00:38:15;2.45;;;1.00;;
54235;SDS011;40151;43.606;1.472;2022-07-06T00:41:12;1.27;;;0.80;;
54235;SDS011;40151;43.606;1.472;2022-07-06T00:43:59;3.45;;;0.90;;
54235;SDS011;40151;43.606;1.472;2022-07-06T00:46:59;3.00;;;0.98;;
54235;SDS011;40151;43.606;1.472;2022-07-06T00:53:05;3.25;;;0.80;;
54235;SDS011;40151;43.606;1.472;2022-07-06T00:55:52;3.17;;;0.80;;
54235;SDS011;40151;43.606;1.472;2022-07-06T00:58:18;2.33;;;0.93;;
54235;SDS011;40151;43.606;1.472;2022-07-06T01:00:57;1.38;;;0.90;;
54235;SDS011;40151;43.606;1.472;2022-07-06T01:03:48;1.77;;;0.90;;
54235;SDS011;40151;43.606;1.472;2022-07-06T01:06:25;2.45;;;0.90;;
54235;SDS011;40151;43.606;1.472;2022-07-06T01:09:00;2.55;;;1.00;;
54235;SDS011;40151;43.606;1.472;2022-07-06T01:11:52;3.08;;;1.00;;
54235;SDS011;40151;43.606;1.472;2022-07-06T01:14:26;2.67;;;1.00;;
54235;SDS011;40151;43.606;1.472;2022-07-06T01:17:19;2.15;;;0.80;;
54235;SDS011;40151;43.606;1.472;2022-07-06T01:20:07;3.03;;;0.98;;
54235;SDS011;40151;43.606;1.472;2022-07-06T01:22:53;3.83;;;0.90;;
54235;SDS011;40151;43.606;1.472;2022-07-06T01:25:36;5.03;;;1.33;;
54235;SDS011;40151;43.606;1.472;2022-07-06T01:28:21;2.97;;;1.17;;
54235;SDS011;40151;43.606;1.472;2022-07-06T01:30:55;4.33;;;1.33;;
54235;SDS011;40151;43.606;1.472;2022-07-06T01:33:31;2.50;;;0.90;;
54235;SDS011;40151;43.606;1.472;2022-07-06T01:36:02;2.63;;;0.95;;
54235;SDS011;40151;43.606;1.472;2022-07-06T01:38:46;1.85;;;0.85;;
54235;SDS011;40151;43.606;1.472;2022-07-06T01:41:17;1.67;;;0.80;;
54235;SDS011;40151;43.606;1.472;2022-07-06T01:43:46;1.80;;;0.80;;
54235;SDS011;40151;43.606;1.472;2022-07-06T01:46:19;2.03;;;0.80;;
54235;SDS011;40151;43.606;1.472;2022-07-06T01:48:54;3.10;;;0.82;;
54235;SDS011;40151;43.606;1.472;2022-07-06T01:51:26;2.25;;;0.80;;
54235;SDS011;40151;43.606;1.472;2022-07-06T01:53:58;2.27;;;1.00;;
54235;SDS011;40151;43.606;1.472;2022-07-06T01:56:27;3.35;;;0.88;;
54235;SDS011;40151;43.606;1.472;2022-07-06T01:59:12;3.75;;;1.05;;
54235;SDS011;40151;43.606;1.472;2022-07-06T02:01:48;2.30;;;0.95;;
54235;SDS011;40151;43.606;1.472;2022-07-06T02:07:42;2.58;;;0.75;;
54235;SDS011;40151;43.606;1.472;2022-07-06T02:10:36;2.50;;;1.02;;
54235;SDS011;40151;43.606;1.472;2022-07-06T02:13:05;1.55;;;0.70;;
54235;SDS011;40151;43.606;1.472;2022-07-06T02:15:40;3.03;;;0.70;;
54235;SDS011;40151;43.606;1.472;2022-07-06T02:18:08;3.08;;;1.02;;
54235;SDS011;40151;43.606;1.472;2022-07-06T02:20:38;2.00;;;1.00;;
54235;SDS011;40151;43.606;1.472;2022-07-06T02:23:06;1.98;;;0.82;;
54235;SDS011;40151;43.606;1.472;2022-07-06T02:25:38;2.67;;;0.75;;
54235;SDS011;40151;43.606;1.472;2022-07-06T02:28:14;1.60;;;0.70;;
54235;SDS011;40151;43.606;1.472;2022-07-06T02:30:44;3.35;;;1.30;;
54235;SDS011;40151;43.606;1.472;2022-07-06T02:33:22;2.60;;;0.90;;
54235;SDS011;40151;43.606;1.472;2022-07-06T02:36:05;2.88;;;1.10;;
54235;SDS011;40151;43.606;1.472;2022-07-06T02:38:45;1.75;;;0.85;;
54235;SDS011;40151;43.606;1.472;2022-07-06T02:41:28;1.70;;;0.70;;
54235;SDS011;40151;43.606;1.472;2022-07-06T02:43:59;3.42;;;1.20;;
54235;SDS011;40151;43.606;1.472;2022-07-06T02:46:36;2.08;;;0.95;;
54235;SDS011;40151;43.606;1.472;2022-07-06T02:49:13;5.00;;;0.90;;
54235;SDS011;40151;43.606;1.472;2022-07-06T02:51:45;2.55;;;1.00;;
54235;SDS011;40151;43.606;1.472;2022-07-06T02:57:16;2.28;;;0.90;;
54235;SDS011;40151;43.606;1.472;2022-07-06T02:59:43;2.72;;;1.02;;
54235;SDS011;40151;43.606;1.472;2022-07-06T03:02:16;2.03;;;0.93;;
54235;SDS011;40151;43.606;1.472;2022-07-06T03:04:48;2.85;;;0.75;;
54235;SDS011;40151;43.606;1.472;2022-07-06T03:07:16;2.28;;;0.95;;
54235;SDS011;40151;43.606;1.472;2022-07-06T03:09:44;2.08;;;0.93;;
54235;SDS011;40151;43.606;1.472;2022-07-06T03:12:11;3.47;;;1.05;;
54235;SDS011;40151;43.606;1.472;2022-07-06T03:14:39;3.90;;;1.08;;
54235;SDS011;40151;43.606;1.472;2022-07-06T03:17:07;4.25;;;1.10;;
54235;SDS011;40151;43.606;1.472;2022-07-06T03:19:37;2.08;;;0.82;;
54235;SDS011;40151;43.606;1.472;2022-07-06T03:22:13;1.98;;;0.93;;
54235;SDS011;40151;43.606;1.472;2022-07-06T03:24:52;3.30;;;1.10;;
54235;SDS011;40151;43.606;1.472;2022-07-06T03:27:20;3.65;;;1.10;;
54235;SDS011;40151;43.606;1.472;2022-07-06T03:29:49;2.67;;;1.00;;
54235;SDS011;40151;43.606;1.472;2022-07-06T03:32:25;3.55;;;0.80;;
54235;SDS011;40151;43.606;1.472;2022-07-06T03:35:03;2.25;;;0.90;;
54235;SDS011;40151;43.606;1.472;2022-07-06T03:37:39;2.90;;;0.88;;
54235;SDS011;40151;43.606;1.472;2022-07-06T03:40:10;3.08;;;1.15;;
54235;SDS011;40151;43.606;1.472;2022-07-06T03:42:38;3.63;;;1.02;;
54235;SDS011;40151;43.606;1.472;2022-07-06T03:45:10;2.20;;;0.90;;
54235;SDS011;40151;43.606;1.472;2022-07-06T03:47:41;2.50;;;1.05;;
54235;SDS011;40151;43.606;1.472;2022-07-06T03:50:21;4.22;;;1.00;;
54235;SDS011;40151;43.606;1.472;2022-07-06T03:52:54;2.80;;;1.00;;
54235;SDS011;40151;43.606;1.472;2022-07-06T03:55:25;2.83;;;1.10;;
54235;SDS011;40151;43.606;1.472;2022-07-06T03:58:05;3.17;;;0.77;;
54235;SDS011;40151;43.606;1.472;2022-07-06T04:00:42;2.92;;;1.10;;
54235;SDS011;40151;43.606;1.472;2022-07-06T04:03:11;4.30;;;1.00;;
54235;SDS011;40151;43.606;1.472;2022-07-06T04:05:38;4.10;;;1.20;;
54235;SDS011;40151;43.606;1.472;2022-07-06T04:08:07;2.15;;;0.93;;
54235;SDS011;40151;43.606;1.472;2022-07-06T04:10:34;2.92;;;1.00;;
54235;SDS011;40151;43.606;1.472;2022-07-06T04:13:11;3.40;;;1.15;;
54235;SDS011;40151;43.606;1.472;2022-07-06T04:15:40;3.22;;;1.10;;
54235;SDS011;40151;43.606;1.472;2022-07-06T04:18:18;1.92;;;0.90;;
54235;SDS011;40151;43.606;1.472;2022-07-06T04:20:53;2.67;;;1.20;;
54235;SDS011;40151;43.606;1.472;2022-07-06T04:26:01;3.15;;;1.00;;
54235;SDS011;40151;43.606;1.472;2022-07-06T04:28:30;2.72;;;0.93;;
54235;SDS011;40151;43.606;1.472;2022-07-06T04:31:08;2.45;;;1.10;;
54235;SDS011;40151;43.606;1.472;2022-07-06T04:33:37;1.88;;;1.02;;
54235;SDS011;40151;43.606;1.472;2022-07-06T04:36:12;2.50;;;0.88;;
54235;SDS011;40151;43.606;1.472;2022-07-06T04:38:50;3.38;;;1.20;;
54235;SDS011;40151;43.606;1.472;2022-07-06T04:41:25;1.27;;;0.80;;
54235;SDS011;40151;43.606;1.472;2022-07-06T04:44:14;2.53;;;0.98;;
54235;SDS011;40151;43.606;1.472;2022-07-06T04:46:45;4.55;;;1.30;;
54235;SDS011;40151;43.606;1.472;2022-07-06T04:49:15;2.65;;;1.00;;
54235;SDS011;40151;43.606;1.472;2022-07-06T04:51:50;2.38;;;1.20;;
54235;SDS011;40151;43.606;1.472;2022-07-06T04:54:32;3.35;;;1.02;;
54235;SDS011;40151;43.606;1.472;2022-07-06T04:57:11;3.67;;;0.93;;
54235;SDS011;40151;43.606;1.472;2022-07-06T05:00:03;1.00;;;0.68;;
54235;SDS011;40151;43.606;1.472;2022-07-06T05:02:33;2.47;;;1.00;;
54235;SDS011;40151;43.606;1.472;2022-07-06T05:05:07;1.95;;;0.90;;
54235;SDS011;40151;43.606;1.472;2022-07-06T05:07:42;2.70;;;0.98;;
54235;SDS011;40151;43.606;1.472;2022-07-06T05:10:31;2.72;;;0.90;;
54235;SDS011;40151;43.606;1.472;2022-07-06T05:13:02;4.43;;;0.90;;
54235;SDS011;40151;43.606;1.472;2022-07-06T05:18:01;2.37;;;1.07;;
54235;SDS011;40151;43.606;1.472;2022-07-06T05:20:41;4.63;;;1.10;;
54235;SDS011;40151;43.606;1.472;2022-07-06T05:23:20;3.22;;;1.10;;
54235;SDS011;40151;43.606;1.472;2022-07-06T05:25:58;1.63;;;0.85;;
54235;SDS011;40151;43.606;1.472;2022-07-06T05:28:33;2.67;;;0.95;;
54235;SDS011;40151;43.606;1.472;2022-07-06T05:31:11;3.80;;;1.08;;
54235;SDS011;40151;43.606;1.472;2022-07-06T05:33:41;3.42;;;1.20;;
54235;SDS011;40151;43.606;1.472;2022-07-06T05:36:13;3.75;;;1.58;;
54235;SDS011;40151;43.606;1.472;2022-07-06T05:38:39;2.65;;;1.15;;
54235;SDS011;40151;43.606;1.472;2022-07-06T05:41:08;4.15;;;1.02;;
54235;SDS011;40151;43.606;1.472;2022-07-06T05:43:38;4.25;;;1.30;;
54235;SDS011;40151;43.606;1.472;2022-07-06T05:46:11;4.57;;;1.20;;
54235;SDS011;40151;43.606;1.472;2022-07-06T05:48:39;3.50;;;1.08;;
54235;SDS011;40151;43.606;1.472;2022-07-06T05:51:28;4.30;;;1.23;;
54235;SDS011;40151;43.606;1.472;2022-07-06T05:54:00;5.05;;;1.50;;
54235;SDS011;40151;43.606;1.472;2022-07-06T05:57:02;2.55;;;1.05;;
54235;SDS011;40151;43.606;1.472;2022-07-06T05:59:33;3.17;;;1.20;;
54235;SDS011;40151;43.606;1.472;2022-07-06T06:02:13;6.45;;;1.40;;
54235;SDS011;40151;43.606;1.472;2022-07-06T06:04:42;3.08;;;1.10;;
54235;SDS011;40151;43.606;1.472;2022-07-06T06:07:26;2.65;;;1.20;;
54235;SDS011;40151;43.606;1.472;2022-07-06T06:10:10;2.92;;;1.05;;
54235;SDS011;40151;43.606;1.472;2022-07-06T06:12:39;4.75;;;1.40;;
54235;SDS011;40151;43.606;1.472;2022-07-06T06:15:13;4.35;;;1.63;;
54235;SDS011;40151;43.606;1.472;2022-07-06T06:17:50;4.68;;;1.50;;
54235;SDS011;40151;43.606;1.472;2022-07-06T06:23:14;3.55;;;1.08;;
54235;SDS011;40151;43.606;1.472;2022-07-06T06:25:49;4.22;;;1.50;;
54235;SDS011;40151;43.606;1.472;2022-07-06T06:28:24;4.20;;;1.50;;
54235;SDS011;40151;43.606;1.472;2022-07-06T06:30:50;3.00;;;1.15;;
54235;SDS011;40151;43.606;1.472;2022-07-06T06:33:17;4.75;;;1.35;;
54235;SDS011;40151;43.606;1.472;2022-07-06T06:35:45;6.65;;;1.38;;
54235;SDS011;40151;43.606;1.472;2022-07-06T06:38:12;4.63;;;1.25;;
54235;SDS011;40151;43.606;1.472;2022-07-06T06:40:39;3.95;;;1.40;;
54235;SDS011;40151;43.606;1.472;2022-07-06T06:43:06;2.83;;;1.27;;
54235;SDS011;40151;43.606;1.472;2022-07-06T06:45:33;5.38;;;1.45;;
54235;SDS011;40151;43.606;1.472;2022-07-06T06:47:59;4.53;;;1.20;;
54235;SDS011;40151;43.606;1.472;2022-07-06T06:50:25;4.72;;;1.67;;
54235;SDS011;40151;43.606;1.472;2022-07-06T06:52:52;3.60;;;1.40;;
54235;SDS011;40151;43.606;1.472;2022-07-06T06:55:18;3.47;;;1.50;;
54235;SDS011;40151;43.606;1.472;2022-07-06T06:57:44;3.95;;;1.20;;
54235;SDS011;40151;43.606;1.472;2022-07-06T07:00:14;3.45;;;1.20;;
54235;SDS011;40151;43.606;1.472;2022-07-06T07:02:40;4.50;;;1.45;;
54235;SDS011;40151;43.606;1.472;2022-07-06T07:05:06;4.38;;;1.20;;
54235;SDS011;40151;43.606;1.472;2022-07-06T07:07:32;3.65;;;1.15;;
54235;SDS011;40151;43.606;1.472;2022-07-06T07:10:05;4.93;;;1.40;;
54235;SDS011;40151;43.606;1.472;2022-07-06T07:12:31;4.63;;;1.33;;
54235;SDS011;40151;43.606;1.472;2022-07-06T07:14:58;2.90;;;1.10;;
54235;SDS011;40151;43.606;1.472;2022-07-06T07:17:25;3.17;;;1.42;;
54235;SDS011;40151;43.606;1.472;2022-07-06T07:19:54;3.88;;;1.17;;
54235;SDS011;40151;43.606;1.472;2022-07-06T07:22:22;3.58;;;1.10;;
54235;SDS011;40151;43.606;1.472;2022-07-06T07:24:47;3.72;;;1.67;;
54235;SDS011;40151;43.606;1.472;2022-07-06T07:27:14;3.05;;;1.30;;
54235;SDS011;40151;43.606;1.472;2022-07-06T07:29:43;5.28;;;1.63;;
54235;SDS011;40151;43.606;1.472;2022-07-06T07:32:09;1.85;;;1.38;;
54235;SDS011;40151;43.606;1.472;2022-07-06T07:34:35;4.38;;;1.30;;
54235;SDS011;40151;43.606;1.472;2022-07-06T07:37:00;4.20;;;1.40;;
54235;SDS011;40151;43.606;1.472;2022-07-06T07:39:26;4.70;;;1.40;;
54235;SDS011;40151;43.606;1.472;2022-07-06T07:41:51;3.60;;;1.30;;
54235;SDS011;40151;43.606;1.472;2022-07-06T07:44:17;3.92;;;1.13;;
54235;SDS011;40151;43.606;1.472;2022-07-06T07:46:43;3.33;;;1.05;;
54235;SDS011;40151;43.606;1.472;2022-07-06T07:49:09;3.03;;;1.20;;
54235;SDS011;40151;43.606;1.472;2022-07-06T07:51:35;5.63;;;1.40;;
54235;SDS011;40151;43.606;1.472;2022-07-06T07:54:00;2.38;;;1.20;;
54235;SDS011;40151;43.606;1.472;2022-07-06T07:56:26;3.60;;;1.27;;
54235;SDS011;40151;43.606;1.472;2022-07-06T07:58:51;4.03;;;1.38;;
54235;SDS011;40151;43.606;1.472;2022-07-06T08:01:17;2.17;;;1.00;;
54235;SDS011;40151;43.606;1.472;2022-07-06T08:03:43;3.67;;;1.20;;
54235;SDS011;40151;43.606;1.472;2022-07-06T08:06:08;3.22;;;1.10;;
54235;SDS011;40151;43.606;1.472;2022-07-06T08:08:34;5.38;;;1.30;;
54235;SDS011;40151;43.606;1.472;2022-07-06T08:11:00;5.18;;;1.50;;
54235;SDS011;40151;43.606;1.472;2022-07-06T08:13:26;3.25;;;1.13;;
54235;SDS011;40151;43.606;1.472;2022-07-06T08:15:52;5.53;;;1.35;;
54235;SDS011;40151;43.606;1.472;2022-07-06T08:18:17;5.75;;;1.17;;
54235;SDS011;40151;43.606;1.472;2022-07-06T08:20:43;2.97;;;1.38;;
54235;SDS011;40151;43.606;1.472;2022-07-06T08:23:09;3.88;;;1.40;;
54235;SDS011;40151;43.606;1.472;2022-07-06T08:25:34;3.22;;;1.20;;
54235;SDS011;40151;43.606;1.472;2022-07-06T08:28:00;2.35;;;0.90;;
54235;SDS011;40151;43.606;1.472;2022-07-06T08:30:26;3.72;;;1.08;;
54235;SDS011;40151;43.606;1.472;2022-07-06T08:32:52;3.25;;;1.27;;
54235;SDS011;40151;43.606;1.472;2022-07-06T08:35:17;3.45;;;1.10;;
54235;SDS011;40151;43.606;1.472;2022-07-06T08:37:43;2.22;;;1.00;;
54235;SDS011;40151;43.606;1.472;2022-07-06T08:40:09;1.95;;;0.90;;
54235;SDS011;40151;43.606;1.472;2022-07-06T08:42:35;2.72;;;1.30;;
54235;SDS011;40151;43.606;1.472;2022-07-06T08:45:02;1.83;;;0.95;;
54235;SDS011;40151;43.606;1.472;2022-07-06T08:47:30;2.83;;;0.95;;
54235;SDS011;40151;43.606;1.472;2022-07-06T08:49:56;2.97;;;1.20;;
54235;SDS011;40151;43.606;1.472;2022-07-06T08:52:23;2.72;;;1.33;;
54235;SDS011;40151;43.606;1.472;2022-07-06T08:54:50;4.30;;;1.27;;
54235;SDS011;40151;43.606;1.472;2022-07-06T08:57:15;3.60;;;1.10;;
54235;SDS011;40151;43.606;1.472;2022-07-06T08:59:42;3.45;;;1.40;;
54235;SDS011;40151;43.606;1.472;2022-07-06T09:02:09;3.60;;;1.20;;
54235;SDS011;40151;43.606;1.472;2022-07-06T09:04:36;3.65;;;1.20;;
54235;SDS011;40151;43.606;1.472;2022-07-06T09:07:02;2.97;;;1.40;;
54235;SDS011;40151;43.606;1.472;2022-07-06T09:09:29;2.28;;;1.08;;
54235;SDS011;40151;43.606;1.472;2022-07-06T09:11:58;3.00;;;1.08;;
54235;SDS011;40151;43.606;1.472;2022-07-06T09:14:25;2.72;;;1.30;;
54235;SDS011;40151;43.606;1.472;2022-07-06T09:17:05;4.47;;;1.50;;
54235;SDS011;40151;43.606;1.472;2022-07-06T09:19:33;2.78;;;1.20;;
54235;SDS011;40151;43.606;1.472;2022-07-06T09:22:02;2.85;;;1.20;;
54235;SDS011;40151;43.606;1.472;2022-07-06T09:24:31;3.45;;;1.30;;
54235;SDS011;40151;43.606;1.472;2022-07-06T09:26:59;4.25;;;1.70;;
54235;SDS011;40151;43.606;1.472;2022-07-06T09:29:28;2.72;;;1.20;;
54235;SDS011;40151;43.606;1.472;2022-07-06T09:31:58;3.33;;;1.17;;
54235;SDS011;40151;43.606;1.472;2022-07-06T09:34:45;3.90;;;1.63;;
54235;SDS011;40151;43.606;1.472;2022-07-06T09:37:16;4.35;;;1.33;;
54235;SDS011;40151;43.606;1.472;2022-07-06T09:39:42;4.80;;;1.60;;
54235;SDS011;40151;43.606;1.472;2022-07-06T09:42:10;2.42;;;1.13;;
54235;SDS011;40151;43.606;1.472;2022-07-06T09:44:37;2.40;;;1.15;;
54235;SDS011;40151;43.606;1.472;2022-07-06T09:47:13;3.60;;;1.40;;
54235;SDS011;40151;43.606;1.472;2022-07-06T09:50:05;2.75;;;1.17;;
54235;SDS011;40151;43.606;1.472;2022-07-06T09:52:57;2.35;;;1.00;;
54235;SDS011;40151;43.606;1.472;2022-07-06T09:55:27;5.03;;;1.27;;
54235;SDS011;40151;43.606;1.472;2022-07-06T09:58:08;4.00;;;1.05;;
54235;SDS011;40151;43.606;1.472;2022-07-06T10:00:39;3.00;;;1.20;;
54235;SDS011;40151;43.606;1.472;2022-07-06T10:03:05;3.58;;;1.00;;
54235;SDS011;40151;43.606;1.472;2022-07-06T10:08:37;4.35;;;1.25;;
54235;SDS011;40151;43.606;1.472;2022-07-06T10:11:08;3.60;;;1.13;;
54235;SDS011;40151;43.606;1.472;2022-07-06T10:14:07;3.67;;;1.15;;
54235;SDS011;40151;43.606;1.472;2022-07-06T10:20:05;6.32;;;1.48;;
54235;SDS011;40151;43.606;1.472;2022-07-06T10:22:48;2.65;;;1.25;;
54235;SDS011;40151;43.606;1.472;2022-07-06T10:25:17;3.35;;;1.23;;
54235;SDS011;40151;43.606;1.472;2022-07-06T10:27:45;2.33;;;1.20;;
54235;SDS011;40151;43.606;1.472;2022-07-06T10:30:12;3.85;;;1.02;;
54235;SDS011;40151;43.606;1.472;2022-07-06T10:32:44;2.38;;;1.17;;
54235;SDS011;40151;43.606;1.472;2022-07-06T10:35:12;4.57;;;1.20;;
54235;SDS011;40151;43.606;1.472;2022-07-06T10:37:40;2.95;;;1.10;;
54235;SDS011;40151;43.606;1.472;2022-07-06T10:40:09;4.57;;;1.40;;
54235;SDS011;40151;43.606;1.472;2022-07-06T10:48:47;2.85;;;1.48;;
54235;SDS011;40151;43.606;1.472;2022-07-06T10:57:12;4.07;;;1.27;;
54235;SDS011;40151;43.606;1.472;2022-07-06T10:59:59;4.38;;;1.58;;
54235;SDS011;40151;43.606;1.472;2022-07-06T11:02:37;2.58;;;1.10;;
54235;SDS011;40151;43.606;1.472;2022-07-06T11:05:03;5.13;;;1.33;;
54235;SDS011;40151;43.606;1.472;2022-07-06T11:07:36;2.55;;;1.33;;
54235;SDS011;40151;43.606;1.472;2022-07-06T11:10:14;2.42;;;1.30;;
54235;SDS011;40151;43.606;1.472;2022-07-06T11:12:44;2.28;;;1.27;;
54235;SDS011;40151;43.606;1.472;2022-07-06T11:15:10;5.80;;;1.48;;
54235;SDS011;40151;43.606;1.472;2022-07-06T11:17:35;4.40;;;1.35;;
54235;SDS011;40151;43.606;1.472;2022-07-06T11:20:10;4.78;;;1.65;;
54235;SDS011;40151;43.606;1.472;2022-07-06T11:22:37;6.55;;;1.63;;
54235;SDS011;40151;43.606;1.472;2022-07-06T11:25:04;4.03;;;1.50;;
54235;SDS011;40151;43.606;1.472;2022-07-06T11:30:39;4.70;;;1.40;;
54235;SDS011;40151;43.606;1.472;2022-07-06T11:36:20;4.18;;;1.38;;
54235;SDS011;40151;43.606;1.472;2022-07-06T11:38:47;6.65;;;1.33;;
54235;SDS011;40151;43.606;1.472;2022-07-06T11:41:15;5.68;;;1.27;;
54235;SDS011;40151;43.606;1.472;2022-07-06T11:43:42;3.17;;;1.40;;
54235;SDS011;40151;43.606;1.472;2022-07-06T11:48:50;2.90;;;1.10;;
54235;SDS011;40151;43.606;1.472;2022-07-06T11:51:17;3.10;;;1.10;;
54235;SDS011;40151;43.606;1.472;2022-07-06T11:53:48;3.13;;;1.20;;
54235;SDS011;40151;43.606;1.472;2022-07-06T11:58:48;3.28;;;1.20;;
54235;SDS011;40151;43.606;1.472;2022-07-06T12:01:16;3.47;;;1.10;;
54235;SDS011;40151;43.606;1.472;2022-07-06T12:03:42;3.17;;;1.20;;
54235;SDS011;40151;43.606;1.472;2022-07-06T12:06:13;3.53;;;1.23;;
54235;SDS011;40151;43.606;1.472;2022-07-06T12:08:57;2.47;;;1.10;;
54235;SDS011;40151;43.606;1.472;2022-07-06T12:11:27;1.90;;;0.90;;
54235;SDS011;40151;43.606;1.472;2022-07-06T12:13:59;2.30;;;1.00;;
54235;SDS011;40151;43.606;1.472;2022-07-06T12:16:30;2.67;;;1.00;;
54235;SDS011;40151;43.606;1.472;2022-07-06T12:19:01;2.92;;;1.38;;
54235;SDS011;40151;43.606;1.472;2022-07-06T12:21:36;2.78;;;1.10;;
54235;SDS011;40151;43.606;1.472;2022-07-06T12:24:16;2.92;;;1.20;;
54235;SDS011;40151;43.606;1.472;2022-07-06T12:27:14;3.45;;;1.20;;
54235;SDS011;40151;43.606;1.472;2022-07-06T12:29:44;3.25;;;1.10;;
54235;SDS011;40151;43.606;1.472;2022-07-06T12:32:17;3.05;;;1.10;;
54235;SDS011;40151;43.606;1.472;2022-07-06T12:35:07;2.42;;;1.15;;
54235;SDS011;40151;43.606;1.472;2022-07-06T12:37:37;2.55;;;1.23;;
54235;SDS011;40151;43.606;1.472;2022-07-06T12:40:12;2.75;;;1.20;;
54235;SDS011;40151;43.606;1.472;2022-07-06T12:42:46;4.03;;;1.10;;
54235;SDS011;40151;43.606;1.472;2022-07-06T12:45:16;5.38;;;1.52;;
54235;SDS011;40151;43.606;1.472;2022-07-06T12:48:00;3.08;;;0.98;;
54235;SDS011;40151;43.606;1.472;2022-07-06T12:50:37;4.13;;;1.00;;
54235;SDS011;40151;43.606;1.472;2022-07-06T12:53:12;2.30;;;0.90;;
54235;SDS011;40151;43.606;1.472;2022-07-06T13:01:04;3.33;;;1.20;;
54235;SDS011;40151;43.606;1.472;2022-07-06T13:03:39;3.88;;;1.23;;
54235;SDS011;40151;43.606;1.472;2022-07-06T13:06:06;5.30;;;1.58;;
54235;SDS011;40151;43.606;1.472;2022-07-06T13:08:34;3.88;;;1.60;;
54235;SDS011;40151;43.606;1.472;2022-07-06T13:11:13;2.83;;;1.30;;
54235;SDS011;40151;43.606;1.472;2022-07-06T13:13:50;5.78;;;1.40;;
54235;SDS011;40151;43.606;1.472;2022-07-06T13:16:18;4.28;;;1.50;;
54235;SDS011;40151;43.606;1.472;2022-07-06T13:18:51;3.38;;;1.17;;
54235;SDS011;40151;43.606;1.472;2022-07-06T13:21:19;2.80;;;1.30;;
54235;SDS011;40151;43.606;1.472;2022-07-06T13:23:48;3.17;;;1.30;;
54235;SDS011;40151;43.606;1.472;2022-07-06T13:26:16;2.03;;;1.17;;
54235;SDS011;40151;43.606;1.472;2022-07-06T13:28:41;4.78;;;1.33;;
54235;SDS011;40151;43.606;1.472;2022-07-06T13:31:07;2.95;;;0.88;;
54235;SDS011;40151;43.606;1.472;2022-07-06T13:33:33;2.30;;;1.00;;
54235;SDS011;40151;43.606;1.472;2022-07-06T13:36:08;4.68;;;1.27;;
54235;SDS011;40151;43.606;1.472;2022-07-06T13:38:43;2.83;;;1.10;;
54235;SDS011;40151;43.606;1.472;2022-07-06T13:41:09;3.13;;;1.10;;
54235;SDS011;40151;43.606;1.472;2022-07-06T13:43:35;2.40;;;1.00;;
54235;SDS011;40151;43.606;1.472;2022-07-06T13:46:02;2.55;;;1.05;;
54235;SDS011;40151;43.606;1.472;2022-07-06T13:48:31;1.90;;;1.20;;
54235;SDS011;40151;43.606;1.472;2022-07-06T13:50:59;2.78;;;1.05;;
54235;SDS011;40151;43.606;1.472;2022-07-06T13:53:25;2.03;;;1.05;;
54235;SDS011;40151;43.606;1.472;2022-07-06T13:55:56;4.68;;;1.85;;
54235;SDS011;40151;43.606;1.472;2022-07-06T13:58:22;5.45;;;2.00;;
54235;SDS011;40151;43.606;1.472;2022-07-06T14:00:48;7.57;;;2.72;;
54235;SDS011;40151;43.606;1.472;2022-07-06T14:03:14;7.35;;;3.00;;
54235;SDS011;40151;43.606;1.472;2022-07-06T14:05:39;9.52;;;2.72;;
54235;SDS011;40151;43.606;1.472;2022-07-06T14:08:06;12.23;;;4.53;;
54235;SDS011;40151;43.606;1.472;2022-07-06T14:10:34;10.38;;;4.35;;
54235;SDS011;40151;43.606;1.472;2022-07-06T14:12:59;11.27;;;5.00;;
54235;SDS011;40151;43.606;1.472;2022-07-06T14:15:25;12.43;;;5.43;;
54235;SDS011;40151;43.606;1.472;2022-07-06T14:17:52;14.35;;;5.78;;
54235;SDS011;40151;43.606;1.472;2022-07-06T14:20:18;14.50;;;6.25;;
54235;SDS011;40151;43.606;1.472;2022-07-06T14:22:44;13.30;;;6.90;;
54235;SDS011;40151;43.606;1.472;2022-07-06T14:25:10;14.65;;;6.00;;
54235;SDS011;40151;43.606;1.472;2022-07-06T14:27:36;12.65;;;5.22;;
54235;SDS011;40151;43.606;1.472;2022-07-06T14:30:02;16.25;;;6.28;;
54235;SDS011;40151;43.606;1.472;2022-07-06T14:32:28;16.02;;;5.47;;
54235;SDS011;40151;43.606;1.472;2022-07-06T14:34:55;12.00;;;4.85;;
54235;SDS011;40151;43.606;1.472;2022-07-06T14:37:20;11.52;;;4.32;;
54235;SDS011;40151;43.606;1.472;2022-07-06T14:39:46;10.38;;;4.22;;
54235;SDS011;40151;43.606;1.472;2022-07-06T14:42:13;11.75;;;4.35;;
54235;SDS011;40151;43.606;1.472;2022-07-06T14:44:44;8.48;;;3.08;;
54235;SDS011;40151;43.606;1.472;2022-07-06T14:47:23;6.72;;;2.95;;
54235;SDS011;40151;43.606;1.472;2022-07-06T14:50:02;9.57;;;3.03;;
54235;SDS011;40151;43.606;1.472;2022-07-06T14:52:55;5.72;;;2.70;;
54235;SDS011;40151;43.606;1.472;2022-07-06T14:55:25;5.60;;;2.10;;
54235;SDS011;40151;43.606;1.472;2022-07-06T14:57:52;6.90;;;2.15;;
54235;SDS011;40151;43.606;1.472;2022-07-06T15:00:21;5.88;;;2.45;;
54235;SDS011;40151;43.606;1.472;2022-07-06T15:02:47;4.32;;;1.70;;
54235;SDS011;40151;43.606;1.472;2022-07-06T15:05:21;3.60;;;1.88;;
54235;SDS011;40151;43.606;1.472;2022-07-06T15:07:48;6.07;;;1.80;;
54235;SDS011;40151;43.606;1.472;2022-07-06T15:10:14;5.30;;;1.60;;
54235;SDS011;40151;43.606;1.472;2022-07-06T15:12:40;4.40;;;1.30;;
54235;SDS011;40151;43.606;1.472;2022-07-06T15:15:07;2.13;;;1.00;;
54235;SDS011;40151;43.606;1.472;2022-07-06T15:17:34;2.97;;;0.93;;
54235;SDS011;40151;43.606;1.472;2022-07-06T15:20:00;2.35;;;0.88;;
54235;SDS011;40151;43.606;1.472;2022-07-06T15:22:26;2.30;;;1.10;;
54235;SDS011;40151;43.606;1.472;2022-07-06T15:24:51;2.92;;;1.05;;
54235;SDS011;40151;43.606;1.472;2022-07-06T15:27:17;2.30;;;0.70;;
54235;SDS011;40151;43.606;1.472;2022-07-06T15:29:44;2.35;;;1.05;;
54235;SDS011;40151;43.606;1.472;2022-07-06T15:32:14;2.35;;;1.02;;
54235;SDS011;40151;43.606;1.472;2022-07-06T15:34:49;1.95;;;0.90;;
54235;SDS011;40151;43.606;1.472;2022-07-06T15:37:23;1.42;;;0.80;;
54235;SDS011;40151;43.606;1.472;2022-07-06T15:39:58;2.00;;;0.80;;
54235;SDS011;40151;43.606;1.472;2022-07-06T15:42:38;3.80;;;1.00;;
54235;SDS011;40151;43.606;1.472;2022-07-06T15:45:07;2.17;;;0.77;;
54235;SDS011;40151;43.606;1.472;2022-07-06T15:47:45;2.80;;;0.98;;
54235;SDS011;40151;43.606;1.472;2022-07-06T15:50:16;2.50;;;1.05;;
54235;SDS011;40151;43.606;1.472;2022-07-06T15:52:45;2.03;;;0.85;;
54235;SDS011;40151;43.606;1.472;2022-07-06T15:55:11;2.47;;;0.80;;
54235;SDS011;40151;43.606;1.472;2022-07-06T15:57:43;1.92;;;0.65;;
54235;SDS011;40151;43.606;1.472;2022-07-06T16:00:09;2.30;;;0.90;;
54235;SDS011;40151;43.606;1.472;2022-07-06T16:02:37;3.78;;;0.80;;
54235;SDS011;40151;43.606;1.472;2022-07-06T16:05:07;3.00;;;0.82;;
54235;SDS011;40151;43.606;1.472;2022-07-06T16:11:15;3.03;;;0.80;;
54235;SDS011;40151;43.606;1.472;2022-07-06T16:13:43;2.40;;;0.73;;
54235;SDS011;40151;43.606;1.472;2022-07-06T16:16:14;3.38;;;0.80;;